Time;durP1;ratioP1;P1;durP2;ratioP2;P2;SDS_P1;SDS_P2;PMS_P1;PMS_P2;Temp;Humidity;BMP_temperature;BMP_pressure;BME280_temperature;BME280_humidity;BME280_pressure;Samples;Min_cycle;Max_cycle;Signal;HPM_P1;HPM_P2
2023/07/31 00:02:02;;;;;;;4.23;2.90;;;;;;;14.73;100.00;99917.44;4981822;28;20229;-77
2023/07/31 00:04:28;;;;;;;5.20;2.83;;;;;;;14.39;100.00;99796.03;4973868;28;20709;-76
2023/07/31 00:06:53;;;;;;;3.70;2.40;;;;;;;14.55;100.00;99845.66;4966156;28;20829;-76
2023/07/31 00:09:19;;;;;;;5.73;2.87;;;;;;;13.78;100.00;99690.03;4976020;28;20209;-76
2023/07/31 00:11:45;;;;;;;4.70;2.50;;;;;;;15.32;100.00;99981.66;4971417;28;20670;-77
2023/07/31 00:14:11;;;;;;;7.03;2.77;;;;;;;14.35;100.00;99802.16;4983434;28;20214;-77
2023/07/31 00:16:36;;;;;;;3.90;2.57;;;;;;;13.67;100.00;99666.69;4975165;28;20433;-77
2023/07/31 00:19:02;;;;;;;4.33;2.30;;;;;;;13.95;100.00;99763.59;4977324;28;20202;-78
2023/07/31 00:21:27;;;;;;;5.20;2.77;;;;;;;14.76;100.00;99905.31;4979074;28;20190;-78
2023/07/31 00:23:52;;;;;;;3.50;2.00;;;;;;;13.78;100.00;99773.56;4977388;28;20178;-79
2023/07/31 00:26:18;;;;;;;4.20;2.43;;;;;;;14.29;100.00;99874.13;4976353;28;20190;-76
2023/07/31 00:28:43;;;;;;;5.47;2.70;;;;;;;13.51;100.00;99781.47;4975848;28;20809;-79
2023/07/31 00:31:09;;;;;;;5.07;2.30;;;;;;;13.82;100.00;99808.94;4972636;28;20177;-79
2023/07/31 00:33:35;;;;;;;6.63;2.50;;;;;;;13.83;100.00;99749.41;4973116;28;20211;-79
2023/07/31 00:36:00;;;;;;;2.73;2.00;;;;;;;16.08;100.00;100105.34;4974657;28;21033;-75
2023/07/31 00:38:26;;;;;;;5.30;1.93;;;;;;;13.12;100.00;99636.75;4977209;28;20456;-75
2023/07/31 00:40:51;;;;;;;5.13;2.37;;;;;;;13.69;100.00;99777.75;4971868;28;20296;-76
2023/07/31 00:43:17;;;;;;;3.57;2.27;;;;;;;14.21;100.00;99824.13;4975661;28;20190;-77
2023/07/31 00:45:42;;;;;;;3.97;2.20;;;;;;;14.00;100.00;99827.53;4974509;28;20213;-78
2023/07/31 00:48:08;;;;;;;5.00;2.60;;;;;;;13.36;100.00;99778.53;4977911;28;20254;-77
2023/07/31 00:50:35;;;;;;;3.13;2.17;;;;;;;13.72;100.00;99815.00;4971711;28;20594;-77
2023/07/31 00:53:00;;;;;;;4.03;2.73;;;;;;;14.67;100.00;99938.13;4973112;28;20658;-78
2023/07/31 00:55:26;;;;;;;4.13;2.20;;;;;;;13.77;100.00;99788.94;4966821;28;20450;-76
2023/07/31 00:57:52;;;;;;;4.20;2.10;;;;;;;14.06;100.00;99903.94;4969128;28;20198;-78
2023/07/31 01:00:18;;;;;;;3.97;2.30;;;;;;;13.78;100.00;99803.22;4971007;28;20237;-75
2023/07/31 01:02:44;;;;;;;3.73;2.10;;;;;;;13.37;100.00;99702.88;4970812;28;20437;-76
2023/07/31 01:05:10;;;;;;;2.30;1.50;;;;;;;14.60;100.00;99990.63;4968200;28;20561;-76
2023/07/31 01:07:49;;;;;;;4.07;2.00;;;;;;;15.60;100.00;100181.50;4968280;28;20465;-76
2023/07/31 01:10:27;;;;;;;4.97;2.03;;;;;;;12.78;100.00;99705.84;4970732;28;20206;-78
2023/07/31 01:12:56;;;;;;;4.27;2.43;;;;;;;14.69;100.00;99938.72;4968437;28;20466;-76
2023/07/31 01:15:21;;;;;;;3.60;1.53;;;;;;;13.34;100.00;99724.94;4969189;28;20441;-75
2023/07/31 01:17:47;;;;;;;3.43;1.93;;;;;;;13.44;100.00;99724.25;4969670;28;20437;-75
2023/07/31 01:20:18;;;;;;;2.10;1.47;;;;;;;13.17;100.00;99616.38;4968729;28;20715;-77
2023/07/31 01:23:00;;;;;;;4.37;1.63;;;;;;;14.67;100.00;99897.66;4969588;28;20190;-77
2023/07/31 01:25:31;;;;;;;4.93;2.30;;;;;;;15.71;100.00;99987.84;4968706;28;20447;-75
2023/07/31 01:28:03;;;;;;;5.57;1.90;;;;;;;14.05;100.00;99787.19;4971309;28;20437;-77
2023/07/31 01:30:35;;;;;;;4.60;2.30;;;;;;;13.85;100.00;99760.75;4969360;28;20468;-76
2023/07/31 01:33:06;;;;;;;5.53;2.27;;;;;;;13.02;100.00;99657.31;4969090;28;20512;-76
2023/07/31 01:35:33;;;;;;;4.43;1.77;;;;;;;12.89;100.00;99564.22;4972604;28;20437;-79
2023/07/31 01:37:59;;;;;;;2.47;1.73;;;;;;;13.09;100.00;99615.69;4970788;28;21131;-76
2023/07/31 01:40:24;;;;;;;3.20;1.93;;;;;;;14.65;100.00;99753.22;4969396;28;20968;-77
2023/07/31 01:42:50;;;;;;;4.70;2.47;;;;;;;12.96;100.00;100258.50;4971997;28;20190;-78
2023/07/31 01:45:15;;;;;;;3.83;1.83;;;;;;;14.28;100.00;100474.03;4972591;28;20194;-76
2023/07/31 01:47:41;;;;;;;6.13;1.83;;;;;;;15.27;100.00;100665.16;4971524;28;20987;-76
2023/07/31 01:50:07;;;;;;;4.10;2.03;;;;;;;13.10;100.00;100354.19;4972017;28;20599;-78
2023/07/31 01:52:32;;;;;;;3.70;1.80;;;;;;;13.33;100.00;100448.59;4972485;28;20691;-78
2023/07/31 01:54:58;;;;;;;6.20;2.27;;;;;;;12.40;100.00;100244.34;4972031;28;20574;-74
2023/07/31 01:57:23;;;;;;;3.27;1.90;;;;;;;13.52;100.00;100519.47;4970355;28;20191;-77
2023/07/31 01:59:49;;;;;;;2.83;1.93;;;;;;;13.54;100.00;100522.78;4978787;28;20320;-78
2023/07/31 02:02:14;;;;;;;4.60;2.20;;;;;;;12.96;100.00;100403.88;4972474;28;20233;-78
2023/07/31 02:04:40;;;;;;;4.87;2.30;;;;;;;15.18;100.00;100839.47;4971427;28;20182;-76
2023/07/31 02:07:06;;;;;;;4.90;2.60;;;;;;;12.68;100.00;100455.53;4976257;28;20177;-79
2023/07/31 02:09:31;;;;;;;3.83;2.10;;;;;;;12.42;100.00;100399.06;4971786;28;20457;-76
2023/07/31 02:11:57;;;;;;;3.17;1.83;;;;;;;13.16;100.00;100574.09;4978149;28;20665;-81
2023/07/31 02:14:22;;;;;;;2.90;1.67;;;;;;;15.22;100.00;100908.22;4971002;28;20618;-78
2023/07/31 02:16:48;;;;;;;4.37;1.80;;;;;;;13.95;100.00;100725.31;4973253;28;20186;-82
2023/07/31 02:19:13;;;;;;;3.97;1.90;;;;;;;12.82;100.00;100565.53;4972582;28;20236;-78
2023/07/31 02:21:38;;;;;;;3.40;1.37;;;;;;;13.18;100.00;100671.66;4973869;28;20193;-76
2023/07/31 02:24:04;;;;;;;4.30;1.80;;;;;;;13.11;100.00;100652.06;4974008;28;20217;-76
2023/07/31 02:26:30;;;;;;;4.10;1.90;;;;;;;11.94;100.00;100415.78;4973510;28;20692;-76
2023/07/31 02:28:55;;;;;;;3.20;2.27;;;;;;;12.76;100.00;100624.81;4971004;28;20213;-77
2023/07/31 02:31:20;;;;;;;3.53;2.10;;;;;;;13.12;100.00;100726.41;4972573;28;20566;-76
2023/07/31 02:33:46;;;;;;;3.40;1.80;;;;;;;12.85;100.00;100650.41;4971184;28;20300;-82
2023/07/31 02:36:11;;;;;;;3.43;2.17;;;;;;;12.27;100.00;100527.69;4972490;28;20185;-76
2023/07/31 02:38:37;;;;;;;3.70;1.93;;;;;;;12.15;100.00;100516.78;4971261;28;20224;-78
2023/07/31 02:41:02;;;;;;;4.60;1.70;;;;;;;13.33;100.00;100803.34;4971800;28;20573;-78
2023/07/31 02:43:28;;;;;;;3.53;1.90;;;;;;;13.85;100.00;100895.66;4972424;28;20194;-77
2023/07/31 02:45:53;;;;;;;3.10;1.87;;;;;;;13.28;100.00;100789.75;4970006;28;20186;-77
2023/07/31 02:48:19;;;;;;;2.93;1.53;;;;;;;12.60;100.00;100712.25;4971201;28;20717;-79
2023/07/31 02:50:45;;;;;;;4.37;1.70;;;;;;;12.33;100.00;100650.50;4976395;28;20217;-82
2023/07/31 02:53:11;;;;;;;3.50;1.53;;;;;;;13.39;100.00;100931.81;4969250;28;20217;-83
2023/07/31 02:55:36;;;;;;;2.23;1.63;;;;;;;15.27;100.00;101203.72;4970978;28;20441;-77
2023/07/31 02:58:01;;;;;;;4.17;1.60;;;;;;;15.27;100.00;101214.53;4972587;28;20552;-76
2023/07/31 03:00:27;;;;;;;2.50;1.50;;;;;;;13.89;100.00;101030.88;4971223;28;20210;-77
2023/07/31 03:02:53;;;;;;;3.10;1.63;;;;;;;12.56;100.00;100789.88;4969663;28;20642;-77
2023/07/31 03:05:18;;;;;;;4.83;1.33;;;;;;;13.51;100.00;100969.69;4968880;28;20188;-77
2023/07/31 03:07:44;;;;;;;3.23;1.37;;;;;;;13.32;100.00;100977.66;4970433;28;20186;-76
2023/07/31 03:10:09;;;;;;;6.23;1.70;;;;;;;13.47;100.00;101025.06;4971891;28;20202;-80
2023/07/31 03:12:50;;;;;;;2.90;1.27;;;;;;;13.26;100.00;100921.94;4976474;28;20220;-78
2023/07/31 03:15:15;;;;;;;2.90;1.40;;;;;;;12.38;100.00;100787.03;4973564;28;20235;-78
2023/07/31 03:17:41;;;;;;;1.90;1.20;;;;;;;12.29;100.00;100797.19;4970001;28;20444;-76
2023/07/31 03:20:08;;;;;;;3.50;1.30;;;;;;;12.63;100.00;100909.06;4971762;28;20214;-76
2023/07/31 03:22:35;;;;;;;3.20;1.40;;;;;;;13.21;100.00;101010.59;4974976;28;20171;-79
2023/07/31 03:25:01;;;;;;;3.30;1.27;;;;;;;13.77;100.00;101119.72;4972471;28;20500;-80
2023/07/31 03:27:26;;;;;;;3.17;1.70;;;;;;;13.63;100.00;101048.00;4971180;28;20438;-78
2023/07/31 03:29:52;;;;;;;2.73;1.27;;;;;;;13.95;100.00;101129.78;4968473;28;21044;-78
2023/07/31 03:32:17;;;;;;;2.60;1.20;;;;;;;12.79;100.00;100910.50;4970662;28;20619;-79
2023/07/31 03:34:43;;;;;;;1.63;0.90;;;;;;;13.13;100.00;101008.13;4976062;28;20220;-75
2023/07/31 03:37:09;;;;;;;3.10;1.67;;;;;;;12.58;100.00;100945.72;4975749;28;20218;-77
2023/07/31 03:39:35;;;;;;;2.43;1.17;;;;;;;15.16;100.00;101334.16;4975515;28;20297;-78
2023/07/31 03:42:00;;;;;;;2.37;1.20;;;;;;;13.31;100.00;101042.53;4978821;28;20528;-75
2023/07/31 03:44:26;;;;;;;1.30;0.90;;;;;;;12.34;100.00;100859.25;4981735;28;21012;-79
2023/07/31 03:46:51;;;;;;;2.90;1.10;;;;;;;12.50;100.00;100906.41;4976915;28;20189;-77
2023/07/31 03:49:17;;;;;;;1.30;0.80;;;;;;;13.32;100.00;101031.53;4973847;28;20213;-75
2023/07/31 03:51:42;;;;;;;2.17;1.03;;;;;;;12.70;100.00;100956.66;4974375;28;20198;-76
2023/07/31 03:54:08;;;;;;;2.07;1.10;;;;;;;15.22;100.00;101357.59;4983928;28;20236;-76
2023/07/31 03:56:33;;;;;;;2.93;1.00;;;;;;;12.52;100.00;100930.41;4982318;28;20191;-75
2023/07/31 03:58:59;;;;;;;1.33;0.90;;;;;;;12.59;100.00;100934.75;4971377;28;20587;-76
2023/07/31 04:01:26;;;;;;;1.70;1.03;;;;;;;12.48;100.00;100961.47;4977918;28;20202;-76
2023/07/31 04:03:51;;;;;;;3.70;1.27;;;;;;;12.86;100.00;101008.19;4973594;28;20292;-75
2023/07/31 04:06:20;;;;;;;1.33;0.90;;;;;;;13.01;100.00;101079.84;4972262;28;20460;-78
2023/07/31 04:08:45;;;;;;;1.83;0.90;;;;;;;13.96;100.00;101233.91;4975828;28;20213;-76
2023/07/31 04:11:12;;;;;;;1.77;0.90;;;;;;;14.38;100.00;101245.19;4976944;28;20455;-77
2023/07/31 04:13:38;;;;;;;2.90;1.10;;;;;;;13.51;100.00;101128.66;4977367;28;20219;-77
2023/07/31 04:16:03;;;;;;;1.90;0.90;;;;;;;15.14;100.00;101401.91;4975602;28;20449;-75
2023/07/31 04:18:30;;;;;;;3.63;0.97;;;;;;;13.07;100.00;101068.22;4972848;28;20728;-76
2023/07/31 04:20:58;;;;;;;1.37;0.90;;;;;;;13.93;100.00;101197.41;4980679;28;20629;-77
2023/07/31 04:23:24;;;;;;;1.83;1.20;;;;;;;13.54;100.00;101144.44;4977358;28;20444;-76
2023/07/31 04:25:49;;;;;;;3.17;1.00;;;;;;;13.60;100.00;101181.31;4973141;28;20504;-76
2023/07/31 04:28:15;;;;;;;1.77;0.80;;;;;;;13.37;100.00;101127.88;4973781;28;20930;-76
2023/07/31 04:30:40;;;;;;;2.00;1.17;;;;;;;12.54;100.00;101017.13;4972030;28;21164;-76
2023/07/31 04:33:06;;;;;;;2.40;0.80;;;;;;;12.05;100.00;100908.09;4968811;28;20699;-76
2023/07/31 04:35:31;;;;;;;3.00;1.10;;;;;;;13.24;100.00;101157.50;4970322;28;20197;-77
2023/07/31 04:37:56;;;;;;;2.20;1.03;;;;;;;12.51;100.00;101052.53;4969349;28;20544;-76
2023/07/31 04:40:22;;;;;;;1.63;1.00;;;;;;;13.44;100.00;101170.97;4973086;28;20216;-76
2023/07/31 04:42:47;;;;;;;1.27;0.70;;;;;;;13.52;100.00;101138.44;4969090;28;20197;-78
2023/07/31 04:45:14;;;;;;;1.43;0.90;;;;;;;12.74;100.00;101007.19;4968684;28;20198;-76
2023/07/31 04:47:48;;;;;;;1.40;0.90;;;;;;;15.23;100.00;101423.28;4970793;28;20202;-77
2023/07/31 04:50:14;;;;;;;1.77;1.30;;;;;;;15.38;100.00;101475.19;4963237;28;20483;-76
2023/07/31 04:52:39;;;;;;;1.30;0.80;;;;;;;12.87;100.00;101076.31;4964618;28;20507;-77
2023/07/31 04:55:05;;;;;;;1.20;0.80;;;;;;;13.96;100.00;101250.91;4970802;28;20209;-77
2023/07/31 04:57:30;;;;;;;1.37;1.00;;;;;;;12.31;100.00;100934.97;4971904;28;20182;-76
2023/07/31 04:59:56;;;;;;;1.63;1.00;;;;;;;13.77;100.00;101206.78;4975082;28;20211;-76
2023/07/31 05:02:21;;;;;;;1.30;0.80;;;;;;;14.69;100.00;101334.38;4974582;28;20190;-78
2023/07/31 05:04:47;;;;;;;3.00;1.10;;;;;;;12.76;100.00;101066.19;4973414;28;20280;-81
2023/07/31 05:07:12;;;;;;;1.40;0.90;;;;;;;12.65;100.00;101032.66;4974186;28;20189;-76
2023/07/31 05:09:39;;;;;;;2.07;0.90;;;;;;;12.41;100.00;100999.09;4974872;28;20206;-77
2023/07/31 05:12:05;;;;;;;1.40;0.80;;;;;;;12.70;100.00;101045.47;4971069;28;20182;-77
2023/07/31 05:14:31;;;;;;;3.23;1.10;;;;;;;13.65;100.00;101227.31;4974690;28;20484;-78
2023/07/31 05:16:56;;;;;;;2.83;0.87;;;;;;;14.52;100.00;101391.75;4974529;28;20889;-76
2023/07/31 05:19:22;;;;;;;1.63;0.90;;;;;;;15.37;100.00;101452.72;4973645;28;20209;-77
2023/07/31 05:21:47;;;;;;;1.20;0.60;;;;;;;13.73;100.00;101237.06;4975976;28;20266;-78
2023/07/31 05:24:13;;;;;;;1.50;0.80;;;;;;;12.88;100.00;101104.91;4975062;28;20189;-77
2023/07/31 05:26:38;;;;;;;1.50;0.70;;;;;;;12.49;100.00;100982.75;4976051;28;20198;-78
2023/07/31 05:29:04;;;;;;;1.43;0.70;;;;;;;14.64;100.00;101354.97;4976297;28;20206;-76
2023/07/31 05:31:32;;;;;;;2.90;0.70;;;;;;;13.49;100.00;101196.25;4974096;28;20637;-76
2023/07/31 05:33:57;;;;;;;1.70;0.90;;;;;;;12.33;100.00;101005.53;4983252;28;20229;-76
2023/07/31 05:36:23;;;;;;;5.03;1.50;;;;;;;12.42;100.00;100988.16;4974164;28;20444;-76
2023/07/31 05:38:48;;;;;;;1.77;0.90;;;;;;;14.17;100.00;101311.03;4974196;28;20577;-76
2023/07/31 05:41:14;;;;;;;1.67;0.80;;;;;;;12.87;100.00;101063.72;4974361;28;20190;-76
2023/07/31 05:43:39;;;;;;;1.93;0.80;;;;;;;12.74;100.00;101023.31;4975064;28;20253;-77
2023/07/31 05:46:06;;;;;;;1.83;1.23;;;;;;;12.40;100.00;101005.53;4981011;28;20189;-78
2023/07/31 05:48:33;;;;;;;1.57;0.80;;;;;;;12.87;100.00;101124.78;4979470;28;20248;-77
2023/07/31 05:50:59;;;;;;;1.10;0.70;;;;;;;13.63;100.00;101256.38;4974855;28;20473;-76
2023/07/31 05:53:25;;;;;;;1.60;0.80;;;;;;;13.48;100.00;101199.16;4974887;28;20977;-77
2023/07/31 05:55:50;;;;;;;1.37;0.80;;;;;;;13.88;100.00;101244.91;4972765;28;20190;-78
2023/07/31 05:58:16;;;;;;;1.87;0.90;;;;;;;12.74;100.00;101015.25;4973691;28;20194;-77
2023/07/31 06:00:41;;;;;;;2.30;0.70;;;;;;;13.86;100.00;101261.31;4968300;28;20197;-77
2023/07/31 06:03:07;;;;;;;2.00;0.70;;;;;;;13.81;100.00;101225.25;4972679;28;20648;-77
2023/07/31 06:05:32;;;;;;;2.57;0.67;;;;;;;12.82;100.00;101039.28;4968128;28;20229;-78
2023/07/31 06:07:58;;;;;;;1.23;0.70;;;;;;;13.54;100.00;101180.31;4968752;28;20571;-79
2023/07/31 06:10:23;;;;;;;1.57;0.67;;;;;;;13.84;100.00;101236.44;4969078;28;20213;-78
2023/07/31 06:12:49;;;;;;;1.90;0.70;;;;;;;12.91;100.00;101047.13;4972597;28;20198;-78
2023/07/31 06:15:14;;;;;;;1.00;0.60;;;;;;;14.36;100.00;101304.78;4971425;28;20663;-78
2023/07/31 06:17:41;;;;;;;1.63;0.70;;;;;;;15.37;100.00;101441.91;4970808;28;20198;-80
2023/07/31 06:20:07;;;;;;;3.37;0.60;;;;;;;14.66;100.00;101363.66;4971000;28;20206;-77
2023/07/31 06:22:32;;;;;;;1.00;0.60;;;;;;;15.57;100.00;101481.53;4968243;28;20870;-77
2023/07/31 06:24:58;;;;;;;1.40;0.60;;;;;;;14.24;100.00;101301.06;4976728;28;20896;-79
2023/07/31 06:27:24;;;;;;;1.53;0.70;;;;;;;13.10;100.00;101097.41;4968665;28;20243;-81
2023/07/31 06:29:50;;;;;;;2.30;1.13;;;;;;;13.06;100.00;101094.31;4972658;28;20207;-81
2023/07/31 06:32:15;;;;;;;2.40;0.60;;;;;;;12.65;100.00;100986.91;4972426;28;20456;-82
2023/07/31 06:34:41;;;;;;;1.80;0.80;;;;;;;13.74;100.00;101234.19;4977458;28;20218;-83
2023/07/31 06:37:06;;;;;;;1.77;0.70;;;;;;;14.24;100.00;101307.28;4970624;28;20205;-84
2023/07/31 06:39:31;;;;;;;0.90;0.50;;;;;;;15.44;100.00;101428.34;4968823;28;20213;-82
2023/07/31 06:41:57;;;;;;;1.10;0.50;;;;;;;14.27;100.00;101264.75;4974301;28;21308;-79
2023/07/31 06:44:22;;;;;;;1.80;0.60;;;;;;;14.19;100.00;101266.63;4971420;28;20595;-79
2023/07/31 06:46:48;;;;;;;1.83;0.50;;;;;;;13.90;100.00;101194.31;4970072;28;20853;-78
2023/07/31 06:49:15;;;;;;;2.27;0.60;;;;;;;12.82;100.00;100993.50;4969836;28;20245;-80
2023/07/31 06:51:40;;;;;;;1.63;0.50;;;;;;;14.18;100.00;101285.75;4969696;28;20209;-82
2023/07/31 06:54:08;;;;;;;1.47;0.50;;;;;;;15.04;100.00;101355.63;4968977;28;20931;-77
2023/07/31 06:56:33;;;;;;;1.57;0.60;;;;;;;13.76;100.00;101126.94;4969237;28;20535;-79
2023/07/31 06:58:59;;;;;;;1.20;0.50;;;;;;;14.73;100.00;101336.66;4973877;28;20552;-79
2023/07/31 07:01:24;;;;;;;0.90;0.50;;;;;;;13.62;100.00;101154.97;4970903;28;20193;-79
2023/07/31 07:03:50;;;;;;;1.07;0.57;;;;;;;13.25;100.00;101084.59;4968258;28;20209;-78
2023/07/31 07:06:19;;;;;;;1.20;0.50;;;;;;;14.87;100.00;101319.34;4972265;28;20214;-82
2023/07/31 07:08:44;;;;;;;0.97;0.50;;;;;;;13.84;100.00;101147.44;4966745;28;21053;-84
2023/07/31 07:11:10;;;;;;;1.20;0.50;;;;;;;14.84;100.00;101350.31;4971775;28;20524;-84
2023/07/31 07:13:36;;;;;;;1.87;0.70;;;;;;;13.86;100.00;101141.88;4969864;28;20214;-80
2023/07/31 07:16:01;;;;;;;1.50;0.60;;;;;;;14.52;100.00;101254.91;4969836;28;20198;-80
2023/07/31 07:18:26;;;;;;;1.40;0.60;;;;;;;14.55;100.00;101254.50;4966457;28;20191;-79
2023/07/31 07:20:54;;;;;;;1.43;0.63;;;;;;;12.98;100.00;100945.63;4969847;28;20217;-79
2023/07/31 07:23:20;;;;;;;1.57;0.70;;;;;;;14.15;100.00;101200.66;4966825;28;20189;-77
2023/07/31 07:25:46;;;;;;;1.93;0.70;;;;;;;13.21;100.00;101018.69;4976560;28;20441;-78
2023/07/31 07:28:12;;;;;;;3.30;0.80;;;;;;;14.50;100.00;101267.78;4970103;28;20816;-77
2023/07/31 07:30:38;;;;;;;1.13;0.70;;;;;;;14.22;100.00;101187.97;4971195;28;20441;-78
2023/07/31 07:33:03;;;;;;;1.73;0.80;;;;;;;14.13;100.00;101167.66;4970362;28;20691;-78
2023/07/31 07:35:29;;;;;;;1.70;1.00;;;;;;;14.96;100.00;101265.91;4976223;28;20194;-78
2023/07/31 07:37:55;;;;;;;1.70;0.90;;;;;;;16.17;100.00;101437.88;4964526;28;20630;-79
2023/07/31 07:40:20;;;;;;;2.50;1.30;;;;;;;14.87;100.00;101262.66;4971694;28;20873;-77
2023/07/31 07:42:46;;;;;;;2.87;1.53;;;;;;;14.66;100.00;101201.69;4971073;28;20278;-77
2023/07/31 07:45:12;;;;;;;3.10;1.57;;;;;;;15.59;100.00;101364.03;4968380;28;20822;-77
2023/07/31 07:47:40;;;;;;;3.93;1.50;;;;;;;14.96;100.00;101271.31;4968327;28;20204;-76
2023/07/31 07:50:07;;;;;;;4.77;1.90;;;;;;;13.42;100.00;100987.97;4970375;28;20460;-78
2023/07/31 07:52:32;;;;;;;5.73;2.63;;;;;;;13.55;100.00;100974.44;4971536;28;20517;-77
2023/07/31 07:54:58;;;;;;;4.60;2.60;;;;;;;14.16;100.00;101124.06;4972542;28;20838;-76
2023/07/31 07:57:23;;;;;;;6.43;2.60;;;;;;;14.66;100.00;101196.28;4968248;28;20186;-77
2023/07/31 07:59:48;;;;;;;7.73;3.43;;;;;;;15.26;100.00;101247.19;4970319;28;20257;-78
2023/07/31 08:02:14;;;;;;;5.67;2.93;;;;;;;14.01;100.00;101078.50;4970826;28;20443;-79
2023/07/31 08:04:39;;;;;;;7.93;3.60;;;;;;;14.47;100.00;101136.78;4974879;28;20186;-82
2023/07/31 08:07:05;;;;;;;9.03;3.57;;;;;;;14.69;100.00;101156.19;4976711;28;20193;-80
2023/07/31 08:09:31;;;;;;;6.10;3.43;;;;;;;13.79;100.00;100962.06;4971129;28;20702;-76
2023/07/31 08:12:01;;;;;;;6.50;3.27;;;;;;;14.74;100.00;101182.53;4967080;28;21163;-81
2023/07/31 08:14:27;;;;;;;9.47;4.13;;;;;;;15.03;100.00;101191.88;4973134;28;20513;-86
2023/07/31 08:16:52;;;;;;;7.10;3.77;;;;;;;13.95;100.00;101040.81;4970316;28;20437;-79
2023/07/31 08:19:18;;;;;;;10.07;4.83;;;;;;;14.14;100.00;101066.81;4971988;28;20210;-81
2023/07/31 08:21:43;;;;;;;13.03;4.47;;;;;;;14.76;100.00;101183.13;4977438;28;20177;-78
2023/07/31 08:24:09;;;;;;;10.40;4.53;;;;;;;14.61;100.00;101151.06;4975569;28;20217;-78
2023/07/31 08:26:34;;;;;;;19.67;5.57;;;;;;;13.64;100.00;100975.00;4975728;28;20264;-78
2023/07/31 08:29:00;;;;;;;8.00;4.30;;;;;;;14.00;100.00;101063.38;4974395;28;20289;-78
2023/07/31 08:31:26;;;;;;;7.37;3.60;;;;;;;13.61;100.00;100986.22;4976367;28;20695;-80
2023/07/31 08:33:52;;;;;;;7.40;3.80;;;;;;;13.70;100.00;101059.56;4972589;28;20201;-81
2023/07/31 08:36:17;;;;;;;8.27;3.37;;;;;;;14.58;100.00;101178.47;4974826;28;20469;-77
2023/07/31 08:38:43;;;;;;;6.13;4.07;;;;;;;14.84;100.00;101219.84;4979883;28;20206;-76
2023/07/31 08:41:08;;;;;;;6.17;2.90;;;;;;;14.67;100.00;101219.56;4975499;28;20182;-76
2023/07/31 08:43:36;;;;;;;5.17;2.87;;;;;;;15.85;100.00;101350.53;4979194;28;20210;-79
2023/07/31 08:46:02;;;;;;;4.50;2.17;;;;;;;14.55;100.00;101214.00;4982266;28;20669;-76
2023/07/31 08:48:29;;;;;;;4.00;2.23;;;;;;;15.32;100.00;101301.19;4972503;28;20992;-76
2023/07/31 08:50:54;;;;;;;3.80;1.80;;;;;;;13.55;100.00;100982.50;4971607;28;20469;-79
2023/07/31 08:53:20;;;;;;;3.80;2.03;;;;;;;15.37;100.00;101328.41;4974470;28;20564;-77
2023/07/31 08:55:47;;;;;;;5.43;2.17;;;;;;;14.18;100.00;101094.19;4973796;28;20189;-76
2023/07/31 08:58:14;;;;;;;5.50;2.27;;;;;;;14.14;100.00;101049.81;4969416;28;20284;-78
2023/07/31 09:00:40;;;;;;;3.90;1.60;;;;;;;15.54;100.00;101344.09;4974579;28;20445;-78
2023/07/31 09:03:14;;;;;;;3.53;1.77;;;;;;;16.54;100.00;101454.19;4977833;28;20515;-78
2023/07/31 09:05:43;;;;;;;2.73;1.40;;;;;;;14.81;100.00;101195.97;4981143;28;21017;-77
2023/07/31 09:08:11;;;;;;;4.93;2.27;;;;;;;15.45;100.00;101278.66;4978089;28;20812;-76
2023/07/31 09:10:43;;;;;;;5.27;2.17;;;;;;;16.61;100.00;101476.66;4987142;28;20488;-79
2023/07/31 09:13:10;;;;;;;4.43;1.70;;;;;;;15.31;100.00;101206.84;4978025;28;20465;-79
2023/07/31 09:15:37;;;;;;;4.93;1.83;;;;;;;14.80;100.00;101122.25;4975809;28;20471;-76
2023/07/31 09:18:05;;;;;;;3.47;2.10;;;;;;;16.91;100.00;101452.38;4971501;28;20489;-77
2023/07/31 09:20:31;;;;;;;3.60;2.07;;;;;;;16.87;100.00;101449.31;4973834;28;20469;-79
2023/07/31 09:23:05;;;;;;;2.67;1.77;;;;;;;14.33;100.00;100994.88;4970656;28;20470;-79
2023/07/31 09:25:32;;;;;;;3.30;2.07;;;;;;;14.89;100.00;101147.91;4975771;28;20888;-79
2023/07/31 09:28:00;;;;;;;4.90;2.03;;;;;;;14.08;100.00;100934.69;4975811;28;20965;-80
2023/07/31 09:30:26;;;;;;;4.10;1.80;;;;;;;15.56;100.00;101236.53;4972907;28;20483;-81
2023/07/31 09:33:01;;;;;;;3.93;1.40;;;;;;;14.52;100.00;101011.16;4971485;28;20502;-81
2023/07/31 09:35:31;;;;;;;3.10;1.70;;;;;;;14.63;100.00;101040.94;4972561;28;20453;-80
2023/07/31 09:38:00;;;;;;;2.70;1.63;;;;;;;16.89;100.00;101416.53;4973925;28;20481;-79
2023/07/31 09:40:31;;;;;;;2.90;1.43;;;;;;;14.15;100.00;100938.19;4970061;28;20461;-80
2023/07/31 09:43:00;;;;;;;2.07;1.30;;;;;;;17.01;100.00;101430.16;4973151;28;20445;-80
2023/07/31 09:45:27;;;;;;;2.13;1.17;;;;;;;15.04;100.00;101122.47;4974924;28;20461;-78
2023/07/31 09:47:53;;;;;;;3.83;1.27;;;;;;;15.18;100.00;101129.41;4974861;28;20526;-78
2023/07/31 09:50:21;;;;;;;1.67;1.10;;;;;;;15.44;100.00;101144.53;4973369;28;20480;-80
2023/07/31 09:52:46;;;;;;;2.70;1.23;;;;;;;14.87;100.00;101073.59;4970784;28;20528;-77
2023/07/31 09:55:12;;;;;;;3.87;1.30;;;;;;;15.00;100.00;101095.06;4972690;28;20457;-77
2023/07/31 09:57:45;;;;;;;3.37;1.63;;;;;;;15.59;100.00;101196.38;4978749;28;20189;-76
2023/07/31 10:00:12;;;;;;;2.70;1.60;;;;;;;15.36;100.00;101137.56;4971310;28;20206;-78
2023/07/31 10:02:39;;;;;;;1.83;1.03;;;;;;;16.18;100.00;101275.28;4974120;28;20459;-77
2023/07/31 10:05:06;;;;;;;2.53;1.57;;;;;;;14.22;100.00;100953.25;4969777;28;20476;-78
2023/07/31 10:07:36;;;;;;;4.20;1.83;;;;;;;16.14;100.00;101219.09;4970510;28;20446;-76
2023/07/31 10:10:04;;;;;;;2.93;1.30;;;;;;;14.68;100.00;100968.22;4970342;28;20466;-77
2023/07/31 10:12:32;;;;;;;1.70;1.00;;;;;;;15.58;100.00;101156.84;4971912;28;20452;-77
2023/07/31 10:14:59;;;;;;;2.90;1.10;;;;;;;15.58;100.00;101164.16;4977035;28;20965;-79
2023/07/31 10:17:26;;;;;;;2.83;1.17;;;;;;;16.18;100.00;101204.91;4979384;28;20444;-78
2023/07/31 10:19:53;;;;;;;2.00;1.20;;;;;;;15.68;100.00;101177.16;4972490;28;21052;-80
2023/07/31 10:22:19;;;;;;;2.43;1.10;;;;;;;17.18;100.00;101374.28;4972276;28;20953;-79
2023/07/31 10:24:46;;;;;;;2.07;1.20;;;;;;;15.21;100.00;101103.81;4970479;28;21096;-78
2023/07/31 10:27:12;;;;;;;1.87;1.30;;;;;;;14.96;100.00;101087.66;4972171;28;20452;-83
2023/07/31 10:29:39;;;;;;;2.17;1.00;;;;;;;14.39;100.00;100931.94;4971011;28;20489;-80
2023/07/31 10:34:57;;;;;;;3.07;1.10;;;;;;;14.96;100.00;101074.97;4963165;28;20449;-78
2023/07/31 10:37:36;;;;;;;1.50;0.90;;;;;;;16.07;100.00;101210.25;4967901;28;20488;-80
2023/07/31 10:40:20;;;;;;;1.10;0.80;;;;;;;16.49;100.00;101319.50;4970456;28;21004;-82
2023/07/31 10:42:57;;;;;;;1.70;1.00;;;;;;;14.59;100.00;100937.19;4967535;28;20503;-82
2023/07/31 10:45:30;;;;;;;1.47;0.70;;;;;;;16.39;100.00;101219.00;4964257;28;21177;-78
2023/07/31 10:48:02;;;;;;;1.70;0.87;;;;;;;17.40;100.00;101374.59;4967511;28;20499;-80
2023/07/31 10:50:29;;;;;;;1.23;0.70;;;;;;;15.18;100.00;101042.09;4971939;28;20528;-80
2023/07/31 10:52:56;;;;;;;1.40;0.80;;;;;;;14.80;100.00;101032.31;4972274;28;20618;-81
2023/07/31 10:55:32;;;;;;;2.03;0.90;;;;;;;15.08;100.00;101004.81;4967971;28;20448;-80
2023/07/31 10:58:07;;;;;;;2.20;0.60;;;;;;;15.60;100.00;101159.34;4968666;28;20437;-83
2023/07/31 11:00:32;;;;;;;1.30;0.70;;;;;;;16.45;100.00;101226.22;4976234;28;20459;-83
2023/07/31 11:03:01;;;;;;;1.53;0.60;;;;;;;16.45;100.00;101216.22;4971636;28;20950;-84
2023/07/31 11:05:48;;;;;;;1.10;0.70;;;;;;;15.66;100.00;101168.44;4969623;28;20197;-83
2023/07/31 11:08:17;;;;;;;1.10;0.70;;;;;;;17.36;100.00;101390.50;4967183;28;20473;-82
2023/07/31 11:10:44;;;;;;;2.93;0.70;;;;;;;14.64;100.00;100999.44;4967431;28;20433;-81
2023/07/31 11:13:09;;;;;;;1.73;0.90;;;;;;;15.55;100.00;101121.34;4966170;28;20487;-85
2023/07/31 11:15:35;;;;;;;1.27;0.70;;;;;;;15.01;100.00;101033.75;4970626;28;21241;-86
2023/07/31 11:18:05;;;;;;;1.00;0.60;;;;;;;15.29;100.00;101111.63;4967258;28;20194;-81
2023/07/31 11:20:32;;;;;;;1.23;0.50;;;;;;;15.96;100.00;101209.13;4973706;28;20678;-87